Mobridge, SD (57601)

5:21 PM CST on December 08, 2016 (GMT -0600)
Pfitzer Pest Control | | Change Station

Elev 1634 ft 45.53 °N, 100.31 °W | Updated 9 seconds ago

Clear
Clear
-1.5 °F
Feels Like -1 °F
N
3.0
Wind Variable Wind from NW

Today
High -- | Low -- °F
--% Chance of Precip.
Yesterday
High -- | Low -- °F
Precip. -- in
Pressure 30.74 in
Visibility 10.0 miles
Clouds Clear
Windchill -1 °F
Dew Point -6 °F
Humidity 80%
Rainfall 0.00 in
Snow Depth Not available.
8:09 AM 4:58 PM
Waxing Gibbous, 68% visible
METAR KMBG 082252Z AUTO 31010KT 10SM CLR M16/M21 A3060 RMK AO2 SLP409 T11561211
Pressure 30.74 in
Visibility 10.0 miles
Clouds Clear
Windchill -1 °F
Dew Point -6 °F
Humidity 80%
Rainfall 0.00 in
Snow Depth Not available.
8:09 AM 4:58 PM
Waxing Gibbous, 68% visible
METAR KMBG 082252Z AUTO 31010KT 10SM CLR M16/M21 A3060 RMK AO2 SLP409 T11561211

10-Day Weather Forecast

Almanac

Astronomy

Dec. 08, 2016 Rise Set
Actual Time
Civil Twilight
Nautical Twilight
Astronomical Twilight
Moon
Length of Visible Light
Length of Day
Tomorrow will be .
, % of the Moon is Illuminated

Today's Extremes

State Highs State Lows

Community

WunderPhotos

Upload Photos

1,956,277 photos uploaded!

WunderBlog® & News

Nearby

Air Quality

  Air Quality AQ Index Pollutant
Not available.

Snow Depth

Station Depth Elevation

Earthquake Activity

City Distance Mag. Time & Date
Minimum magnitude displayed is 2.5.

Coastal Water Temperatures

Place Temperature

Stations

Nearby Weather Stations

Station Location Temp. Windchill Dew Point Humidity Wind Precip. Elev Updated Type
                   

Watches & Warnings

There are currently no watches in effect.